• Join FlightAware (Why Join?)
  • Login
  • US Flag 
11:03AM EDT


 

Airport Tracker/Info


-or-


 

Live Flight TrackerFlight Track Log ✈ EJA122 ✈ 14-Jul-2013 ✈ KFWA - KBTV

Flight Track Log - Related Links

Times and Time Zones

All times are in EDT time to prevent confusion due to time zone crossing. See the EJA122 flight status page for this flight to view local times or setup timezone preferences in your user account.

Time Position Orientation Groundspeed Altitude Reporting Facility
EDT Latitude Longitude Course Direction KTS MPH feet Rate Location/Type
08:16AM 40.9731 -85.1275 73° East 203 234 3,800  Level Chicago Center
08:17AM 40.9919 -85.0447 73° East 229 264 6,300 2,580 Climbing Chicago Center
08:18AM 41.0131 -84.9511 73° East 256 295 9,100 2,340 Climbing Chicago Center
08:19AM 41.0364 -84.8531 72° East 274 315 11,200 1,860 Climbing Chicago Center
08:20AM 41.0606 -84.7478 73° East 296 341 13,000 1,740 Climbing Chicago Center
08:21AM 41.0856 -84.6392 73° East 305 351 14,800 1,680 Climbing Chicago Center
08:22AM 41.1108 -84.5269 73° East 315 362 16,500 1,620 Climbing Chicago Center
08:23AM 41.1428 -84.3894 73° East 324 373 18,200 1,620 Climbing Chicago Center
08:24AM 41.1678 -84.2753 74° East 325 374 19,900 1,440 Climbing Chicago Center
08:25AM 41.1928 -84.1608 74° East 324 373 21,200 1,260 Climbing Chicago Center
08:26AM 41.2192 -84.0414 74° East 332 382 22,500 1,140 Climbing Chicago Center
08:27AM 41.2469 -83.9206 73° East 340 391 23,600 1,020 Climbing Chicago Center
08:28AM 41.2564 -83.8592 78° East 334 384 24,100 960 Climbing Cleveland Center
08:29AM 41.2869 -83.7308 72° East 346 398 25,100 1,020 Climbing Cleveland Center
08:30AM 41.3136 -83.5994 75° East 359 413 26,200 960 Climbing Cleveland Center
08:31AM 41.3422 -83.4622 74° East 370 426 27,100 900 Climbing Cleveland Center
08:32AM 41.3725 -83.3281 73° East 375 432 28,100 960 Climbing Cleveland Center
08:33AM 41.4006 -83.1936 74° East 375 432 29,100 1,080 Climbing Cleveland Center
08:34AM 41.4353 -83.0400 73° East 375 432 30,300 1,080 Climbing Cleveland Center
08:35AM 41.4631 -82.9053 75° East 375 432 31,300 960 Climbing Cleveland Center
08:36AM 41.4931 -82.7703 73° East 375 432 32,300 960 Climbing Cleveland Center
08:37AM 41.5228 -82.6300 74° East 375 432 33,300 900 Climbing Cleveland Center
08:38AM 41.5500 -82.4892 75° East 380 437 34,200 780 Climbing Cleveland Center
08:39AM 41.5794 -82.3514 74° East 380 437 34,900 600 Climbing Cleveland Center
08:40AM 41.6042 -82.2242 75° East 380 437 35,500 600 Climbing Cleveland Center
08:41AM 41.6353 -82.0833 73° East 387 445 36,200 720 Climbing Cleveland Center
08:42AM 41.6642 -81.9394 75° East 393 452 37,000 720 Climbing Cleveland Center
08:43AM 41.6931 -81.7983 75° East 393 452 37,700 660 Climbing Cleveland Center
08:44AM 41.7236 -81.6403 75° East 393 452 38,400 600 Climbing Cleveland Center
08:45AM 41.7519 -81.4989 75° East 393 452 39,000 600 Climbing Cleveland Center
08:46AM 41.7781 -81.3572 76° East 388 447 39,600 540 Climbing Cleveland Center
08:47AM 41.8039 -81.2156 76° East 396 456 40,100 480 Climbing Cleveland Center
08:48AM 41.8317 -81.0736 75° East 391 450 40,600 420 Climbing Cleveland Center
08:49AM 41.8594 -80.9344 75° East 391 450 41,000 180 Climbing Cleveland Center
08:50AM 41.8889 -80.7894 75° East 396 456 41,000  Level Cleveland Center
08:51AM 41.9119 -80.6583 77° East 396 456 41,000  Level Cleveland Center
08:52AM 41.9494 -80.5161 70° East 396 456 41,000  Level Cleveland Center
08:53AM 41.9953 -80.3708 67° East 410 472 41,000  Level Cleveland Center
08:54AM 42.0386 -80.2253 68° East 410 472 41,000  Level Cleveland Center
08:55AM 42.0819 -80.0797 68° East 418 481 41,000  Level Cleveland Center
08:56AM 42.1311 -79.9225 67° East 411 473 41,000  Level Cleveland Center
08:57AM 42.1739 -79.7764 68° East 416 479 41,000  Level Cleveland Center
08:58AM 42.2186 -79.6300 68° East 416 479 41,000  Level Cleveland Center
08:59AM 42.2611 -79.4861 68° East 416 479 41,000  Level Cleveland Center
09:00AM 42.3078 -79.3450 66° East 416 479 41,000  Level Cleveland Center
09:01AM 42.3644 -79.2092 61° Northeast 416 479 41,000 -540 Level Cleveland Center
09:02AM 42.4192 -79.0728 61° Northeast 411 473 40,000 -1,200 Descending Cleveland Center
09:03AM 42.4697 -78.9561 60° Northeast 401 461 38,600 -1,500 Descending Cleveland Center
09:04AM 42.5239 -78.8197 62° Northeast 401 461 37,100 -1,500 Descending Cleveland Center
09:05AM 42.5803 -78.6883 60° Northeast 401 461 35,600 -1,500 Descending Cleveland Center
09:06AM 42.6381 -78.5456 61° Northeast 408 470 34,100 -1,320 Descending Cleveland Center
09:07AM 42.6981 -78.3994 61° Northeast 420 483 33,000 -600 Descending Cleveland Center
09:08AM 42.7536 -78.2617 61° Northeast 426 490 33,000  Level Cleveland Center
09:09AM 42.8111 -78.1181 61° Northeast 426 490 33,000  Level Cleveland Center
09:10AM 42.8744 -77.9597 61° Northeast 426 490 33,000  Level Cleveland Center
09:11AM 42.9314 -77.8100 63° Northeast 426 490 33,000  Level Cleveland Center
09:12AM 42.9922 -77.6594 61° Northeast 431 496 33,000  Level Cleveland Center
09:13AM 43.0489 -77.5119 62° Northeast 437 503 33,000  Level Cleveland Center
09:14AM 43.1072 -77.3611 62° Northeast 437 503 33,000  Level Cleveland Center
09:15AM 43.1656 -77.2131 62° Northeast 437 503 33,000  Level Cleveland Center
09:17AM 43.2911 -76.8936 62° Northeast 431 496 33,000  Level Boston Center
09:18AM 43.3447 -76.7461 63° Northeast 431 496 33,000  Level Boston Center
09:19AM 43.4092 -76.5819 62° Northeast 436 502 33,000  Level Boston Center
09:20AM 43.4644 -76.4339 63° Northeast 436 502 33,000  Level Boston Center
09:21AM 43.5133 -76.2825 66° East 431 496 33,000  Level Boston Center
09:22AM 43.5619 -76.1339 66° East 431 496 33,000  Level Boston Center
09:23AM 43.6106 -75.9819 66° East 431 496 33,000  Level Boston Center
09:24AM 43.6703 -75.7986 66° East 431 496 33,000  Level Boston Center
09:25AM 43.7164 -75.6489 67° East 431 496 33,000  Level Boston Center
09:26AM 43.7756 -75.4653 66° East 431 496 33,000 -960 Level Boston Center
09:27AM 43.8233 -75.3122 67° East 431 496 31,100 -2,160 Descending Boston Center
09:28AM 43.8706 -75.1617 66° East 431 496 28,700 -2,400 Descending Boston Center
09:29AM 43.9181 -75.0053 67° East 431 496 26,400 -2,400 Descending Boston Center
09:30AM 43.9694 -74.8403 67° East 437 503 23,900 -2,400 Descending Boston Center
09:31AM 44.0164 -74.6892 67° East 437 503 21,600 -2,280 Descending Boston Center
09:32AM 44.0608 -74.5375 68° East 426 490 19,400 -1,800 Descending Boston Center
09:33AM 44.1072 -74.3858 67° East 421 484 18,100 -1,620 Descending Boston Center
09:34AM 44.1472 -74.2456 68° East 407 468 16,300 -1,680 Descending Boston Center
09:35AM 44.1822 -74.1308 67° East 400 460 14,800 -1,860 Descending Boston Center
09:36AM 44.2303 -73.9728 67° East 382 440 12,600 -1,800 Descending Boston Center
09:37AM 44.2714 -73.8464 66° East 376 433 11,200 -1,320 Descending Boston Center
09:38AM 44.3164 -73.7369 60° Northeast 354 407 10,000 -1,440 Descending Boston Center
09:39AM 44.3592 -73.6450 57° Northeast 292 336 8,400 -1,500 Descending Boston Center
09:40AM 44.4058 -73.5733 48° Northeast 257 296 7,000 -1,440 Descending Boston Center
09:41AM 44.4503 -73.5014 49° Northeast 244 281 5,600 -1,440 Descending Boston Center
09:42AM 44.5006 -73.4472 38° Northeast 231 266 4,200 -1,260 Descending Boston Center
09:43AM 44.5492 -73.3956 37° Northeast 220 253 3,100 -1,020 Descending Boston Center
09:44AM 44.5642 -73.3375 70° East 165 190 2,200 -480 Descending Boston Center
09:45AM 44.5397 -73.2672 116° Southeast 175 201 2,200 -480 Level Boston Center
09:46AM 44.5128 -73.2203 129° Southeast 175 201 1,300 -780 Descending Boston Center
09:47AM 44.4903 -73.1822 130° Southeast 148 170 700 -480 Descending Boston Center
09:48AM 44.4717 -73.1558 135° Southeast 119 137 400 -180 Descending Boston Center
09:49AM 44.4675 -73.1528 152° Southeast 66 76 400  Level Boston Center
09:50AM 44.4653 -73.1497 136° Southeast 15 17 400  Level Boston Center